createdAt,value
2018-05-10T00:00:53.193Z,10.50
2018-05-10T00:01:53.233Z,12.20
2018-05-10T00:02:53.267Z,10.70
2018-05-10T00:03:53.303Z,10.50
2018-05-10T00:04:53.348Z,11.30
2018-05-10T00:05:53.377Z,12.00
2018-05-10T00:06:53.420Z,11.40
2018-05-10T00:07:53.503Z,12.00
2018-05-10T00:08:53.496Z,11.10
2018-05-10T00:09:53.538Z,12.30
2018-05-10T00:10:53.568Z,10.50
2018-05-10T00:11:53.597Z,11.30
2018-05-10T00:12:53.633Z,11.70
2018-05-10T00:13:53.671Z,11.40
2018-05-10T00:14:53.708Z,14.10
2018-05-10T00:15:53.748Z,13.80
2018-05-10T00:16:53.783Z,14.80
2018-05-10T00:17:53.820Z,15.10
2018-05-10T00:18:53.855Z,18.70
2018-05-10T00:19:53.893Z,13.70
2018-05-10T00:20:53.927Z,13.10
2018-05-10T00:21:53.965Z,15.30
2018-05-10T00:22:54.003Z,18.30
2018-05-10T00:23:54.039Z,16.10
2018-05-10T00:24:54.075Z,14.40
2018-05-10T00:25:54.113Z,13.70
2018-05-10T00:26:54.150Z,12.90
2018-05-10T00:27:54.184Z,14.80
2018-05-10T00:28:54.222Z,14.20
2018-05-10T00:29:54.258Z,14.30
2018-05-10T00:30:54.298Z,16.50
2018-05-10T00:31:54.337Z,14.80
2018-05-10T00:32:54.367Z,15.60
2018-05-10T00:33:54.405Z,13.10
2018-05-10T00:34:54.441Z,12.40
2018-05-10T00:35:54.476Z,13.00
2018-05-10T00:36:54.515Z,13.10
2018-05-10T00:37:54.553Z,12.60
2018-05-10T00:38:54.592Z,14.20
2018-05-10T00:39:54.623Z,13.00
2018-05-10T00:40:54.657Z,12.80
2018-05-10T00:41:54.693Z,13.50
2018-05-10T00:42:54.729Z,17.20
2018-05-10T00:43:54.765Z,14.30
2018-05-10T00:44:54.800Z,15.10
2018-05-10T00:45:54.837Z,17.00
2018-05-10T00:46:54.875Z,17.00
2018-05-10T00:47:54.909Z,17.40
2018-05-10T00:48:54.946Z,19.70
2018-05-10T00:49:54.984Z,18.00
2018-05-10T00:50:55.020Z,21.10
2018-05-10T00:51:55.055Z,20.30
2018-05-10T00:52:55.092Z,21.20
2018-05-10T00:53:55.127Z,20.80
2018-05-10T00:54:55.166Z,21.20
2018-05-10T00:55:55.200Z,19.80
2018-05-10T00:56:55.235Z,20.10
2018-05-10T00:57:55.272Z,20.20
2018-05-10T00:58:55.309Z,21.20
2018-05-10T00:59:55.344Z,20.40
2018-05-10T01:00:55.378Z,18.20
2018-05-10T01:01:55.516Z,16.90
2018-05-10T01:02:55.452Z,16.10
2018-05-10T01:03:55.487Z,14.80
2018-05-10T01:04:55.528Z,15.70
2018-05-10T01:05:55.560Z,15.80
2018-05-10T01:06:55.599Z,15.00
2018-05-10T01:07:55.631Z,15.80
2018-05-10T01:08:55.674Z,15.80
2018-05-10T01:09:55.705Z,14.80
2018-05-10T01:10:55.739Z,15.20
2018-05-10T01:11:55.775Z,15.80
2018-05-10T01:12:55.810Z,16.90
2018-05-10T01:13:55.846Z,17.00
2018-05-10T01:14:55.883Z,16.30
2018-05-10T01:15:55.917Z,16.20
2018-05-10T01:16:55.954Z,15.70
2018-05-10T01:17:55.991Z,16.60
2018-05-10T01:18:56.025Z,16.80
2018-05-10T01:19:56.064Z,16.30
2018-05-10T01:20:56.097Z,18.20
2018-05-10T01:21:56.132Z,17.10
2018-05-10T01:22:56.169Z,16.70
2018-05-10T01:23:56.207Z,19.50
2018-05-10T01:24:56.240Z,15.80
2018-05-10T01:25:56.276Z,16.90
2018-05-10T01:26:56.311Z,16.30
2018-05-10T01:27:56.349Z,16.50
2018-05-10T01:28:56.383Z,17.20
2018-05-10T01:29:56.421Z,17.90
2018-05-10T01:30:56.454Z,18.10
2018-05-10T01:31:56.489Z,17.30
2018-05-10T01:32:56.526Z,16.60
2018-05-10T01:33:56.560Z,16.10
2018-05-10T01:34:56.597Z,15.60
2018-05-10T01:35:56.631Z,14.40
2018-05-10T01:36:56.674Z,13.40
2018-05-10T01:37:56.704Z,14.80
2018-05-10T01:38:56.738Z,14.40
2018-05-10T01:39:56.783Z,13.50
2018-05-10T01:40:56.810Z,14.00
2018-05-10T01:41:56.844Z,16.50
2018-05-10T01:42:56.881Z,15.80
2018-05-10T01:43:56.915Z,13.90
2018-05-10T01:44:56.951Z,13.90
2018-05-10T01:45:56.986Z,14.00
2018-05-10T01:46:57.021Z,13.80
2018-05-10T01:47:57.056Z,13.30
2018-05-10T01:48:57.092Z,14.10
2018-05-10T01:49:57.128Z,14.90
2018-05-10T01:50:57.164Z,13.70
2018-05-10T01:51:57.200Z,14.90
2018-05-10T01:52:57.234Z,14.70
2018-05-10T01:53:57.271Z,16.20
2018-05-10T01:54:57.304Z,16.40
2018-05-10T01:55:57.339Z,17.10
2018-05-10T01:56:57.375Z,18.00
2018-05-10T01:57:57.411Z,16.80
2018-05-10T01:58:57.453Z,17.90
2018-05-10T01:59:57.481Z,18.90
2018-05-10T02:00:57.516Z,20.20
2018-05-10T02:01:57.552Z,19.20
2018-05-10T02:02:57.590Z,20.10
2018-05-10T02:03:57.622Z,19.90
2018-05-10T02:04:57.659Z,18.40
2018-05-10T02:05:57.697Z,18.90
2018-05-10T02:06:57.729Z,18.70
2018-05-10T02:07:57.775Z,19.20
2018-05-10T02:08:57.798Z,18.40
2018-05-10T02:09:57.836Z,18.70
2018-05-10T02:10:57.971Z,19.50
2018-05-10T02:11:57.903Z,18.70
2018-05-10T02:12:57.945Z,18.60
2018-05-10T02:13:57.977Z,19.30
2018-05-10T02:14:58.012Z,19.70
2018-05-10T02:15:58.044Z,20.10
2018-05-10T02:16:58.081Z,19.50
2018-05-10T02:17:58.117Z,20.10
2018-05-10T02:18:58.153Z,21.10
2018-05-10T02:19:58.185Z,20.00
2018-05-10T02:20:58.220Z,19.30
2018-05-10T02:21:58.254Z,19.20
2018-05-10T02:22:58.293Z,19.20
2018-05-10T02:23:58.329Z,18.40
2018-05-10T02:24:58.360Z,19.50
2018-05-10T02:25:58.397Z,18.00
2018-05-10T02:26:58.437Z,20.10
2018-05-10T02:27:58.465Z,21.90
2018-05-10T02:28:58.500Z,21.80
2018-05-10T02:29:58.535Z,21.40
2018-05-10T02:30:58.571Z,22.70
2018-05-10T02:31:58.608Z,23.70
2018-05-10T02:32:58.640Z,22.90
2018-05-10T02:33:58.676Z,22.10
2018-05-10T02:34:58.710Z,21.40
2018-05-10T02:35:58.744Z,22.20
2018-05-10T02:36:58.780Z,20.10
2018-05-10T02:37:58.816Z,20.10
2018-05-10T02:38:58.909Z,20.10
2018-05-10T02:39:58.886Z,19.60
2018-05-10T02:40:58.921Z,19.20
2018-05-10T02:41:58.955Z,20.20
2018-05-10T02:42:58.990Z,18.90
2018-05-10T02:43:59.024Z,19.90
2018-05-10T02:44:59.095Z,18.80
2018-05-10T02:45:59.095Z,20.20
2018-05-10T02:46:59.131Z,18.40
2018-05-10T02:47:59.163Z,19.60
2018-05-10T02:48:59.203Z,17.40
2018-05-10T02:49:59.236Z,20.00
2018-05-10T02:50:59.268Z,17.30
2018-05-10T02:51:59.304Z,16.70
2018-05-10T02:52:59.338Z,17.70
2018-05-10T02:53:59.373Z,17.10
2018-05-10T02:54:59.407Z,15.90
2018-05-10T02:55:59.443Z,17.00
2018-05-10T02:56:59.476Z,17.20
2018-05-10T02:57:59.530Z,19.90
2018-05-10T02:58:59.546Z,18.10
2018-05-10T02:59:59.580Z,17.50
2018-05-10T03:00:59.615Z,17.40
2018-05-10T03:01:59.651Z,17.20
2018-05-10T03:02:59.686Z,18.30
2018-05-10T03:03:59.720Z,16.10
2018-05-10T03:04:59.755Z,17.80
2018-05-10T03:05:59.790Z,17.90
2018-05-10T03:06:59.825Z,17.00
2018-05-10T03:07:59.860Z,19.70
2018-05-10T03:08:59.895Z,18.50
2018-05-10T03:09:59.930Z,18.80
2018-05-10T03:10:59.965Z,18.60
2018-05-10T03:11:59.999Z,18.80
2018-05-10T03:13:00.033Z,24.10
2018-05-10T03:14:00.067Z,24.30
2018-05-10T03:15:00.204Z,23.50
2018-05-10T03:16:00.138Z,25.90
2018-05-10T03:17:00.173Z,28.30
2018-05-10T03:18:00.210Z,29.90
2018-05-10T03:19:00.245Z,26.30
2018-05-10T03:20:00.278Z,31.10
2018-05-10T03:21:00.313Z,33.40
2018-05-10T03:22:00.350Z,37.40
2018-05-10T03:23:00.381Z,37.00
2018-05-10T03:24:00.417Z,36.30
2018-05-10T03:25:00.459Z,33.70
2018-05-10T03:26:00.502Z,39.70
2018-05-10T03:27:00.520Z,37.00
2018-05-10T03:28:00.554Z,37.20
2018-05-10T03:29:00.589Z,36.20
2018-05-10T03:30:00.624Z,34.50
2018-05-10T03:31:00.659Z,32.90
2018-05-10T03:32:00.694Z,30.00
2018-05-10T03:33:00.728Z,29.80
2018-05-10T03:34:00.763Z,28.60
2018-05-10T03:35:00.803Z,26.50
2018-05-10T03:36:00.831Z,23.10
2018-05-10T03:37:00.866Z,24.20
2018-05-10T03:38:00.913Z,21.30
2018-05-10T03:39:00.958Z,22.00
2018-05-10T03:40:00.970Z,19.90
2018-05-10T03:41:01.007Z,20.10
2018-05-10T03:42:01.044Z,20.40
2018-05-10T03:43:01.075Z,17.00
2018-05-10T03:44:01.109Z,17.10
2018-05-10T03:45:01.144Z,16.70
2018-05-10T03:46:01.179Z,17.10
2018-05-10T03:47:01.212Z,16.60
2018-05-10T03:48:01.270Z,15.20
2018-05-10T03:49:01.284Z,16.10
2018-05-10T03:50:01.319Z,17.70
2018-05-10T03:51:01.354Z,17.80
2018-05-10T03:52:01.392Z,18.00
2018-05-10T03:53:01.423Z,18.70
2018-05-10T03:54:01.458Z,18.10
2018-05-10T03:55:01.493Z,20.90
2018-05-10T03:56:01.525Z,21.80
2018-05-10T03:57:01.561Z,19.50
2018-05-10T03:58:01.596Z,21.20
2018-05-10T03:59:01.634Z,22.20
2018-05-10T04:00:01.669Z,22.70
2018-05-10T04:01:01.700Z,21.60
2018-05-10T04:02:01.736Z,21.80
2018-05-10T04:03:01.771Z,25.50
2018-05-10T04:04:01.805Z,24.90
2018-05-10T04:05:01.840Z,30.10
2018-05-10T04:06:01.885Z,30.30
2018-05-10T04:07:01.909Z,33.20
2018-05-10T04:08:01.942Z,32.10
2018-05-10T04:09:01.986Z,27.50
2018-05-10T04:10:02.018Z,26.00
2018-05-10T04:11:02.050Z,30.90
2018-05-10T04:12:02.084Z,37.00
2018-05-10T04:13:02.118Z,37.20
2018-05-10T04:14:02.154Z,40.60
2018-05-10T04:15:02.191Z,31.50
2018-05-10T04:16:02.222Z,28.90
2018-05-10T04:17:02.263Z,27.20
2018-05-10T04:18:02.291Z,24.00
2018-05-10T04:19:02.328Z,21.20
2018-05-10T04:20:02.361Z,21.90
2018-05-10T04:21:02.398Z,22.70
2018-05-10T04:22:02.537Z,22.10
2018-05-10T04:23:02.467Z,21.60
2018-05-10T04:24:02.501Z,23.20
2018-05-10T04:25:02.538Z,24.00
2018-05-10T04:26:02.579Z,21.80
2018-05-10T04:27:02.607Z,21.50
2018-05-10T04:28:02.641Z,21.90
2018-05-10T04:29:02.677Z,27.10
2018-05-10T04:30:02.711Z,26.90
2018-05-10T04:31:02.748Z,25.30
2018-05-10T04:32:02.794Z,22.80
2018-05-10T04:33:02.814Z,22.30
2018-05-10T04:34:02.855Z,21.40
2018-05-10T04:35:02.884Z,21.30
2018-05-10T04:36:02.919Z,21.90
2018-05-10T04:37:02.955Z,22.80
2018-05-10T04:38:02.995Z,23.10
2018-05-10T04:39:03.023Z,21.70
2018-05-10T04:40:03.059Z,21.20
2018-05-10T04:41:03.095Z,19.80
2018-05-10T04:42:03.130Z,21.00
2018-05-10T04:43:03.167Z,19.00
2018-05-10T04:44:03.198Z,18.70
2018-05-10T04:45:03.233Z,18.30
2018-05-10T04:46:03.277Z,21.50
2018-05-10T04:47:03.304Z,20.50
2018-05-10T04:48:03.345Z,19.30
2018-05-10T04:49:03.372Z,20.90
2018-05-10T04:50:03.409Z,22.60
2018-05-10T04:51:03.444Z,20.80
2018-05-10T04:52:03.478Z,21.80
2018-05-10T04:53:03.518Z,19.40
2018-05-10T04:54:03.548Z,18.60
2018-05-10T04:55:03.585Z,20.00
2018-05-10T04:56:03.623Z,21.50
2018-05-10T04:57:03.654Z,21.40
2018-05-10T04:58:03.690Z,23.00
2018-05-10T04:59:03.724Z,23.70
2018-05-10T05:00:03.761Z,23.70
2018-05-10T05:01:03.796Z,19.80
2018-05-10T05:02:03.830Z,22.00
2018-05-10T05:03:03.875Z,21.60
2018-05-10T05:04:03.909Z,23.80
2018-05-10T05:05:03.936Z,21.90
2018-05-10T05:06:03.979Z,25.10
2018-05-10T05:07:04.009Z,27.60
2018-05-10T05:08:04.052Z,26.00
2018-05-10T05:09:04.166Z,25.90
2018-05-10T05:10:04.115Z,25.60
2018-05-10T05:11:04.147Z,27.00
2018-05-10T05:12:04.224Z,24.10
2018-05-10T05:13:04.218Z,26.00
2018-05-10T05:14:04.258Z,23.10
2018-05-10T05:15:04.291Z,22.50
2018-05-10T05:16:04.324Z,19.30
2018-05-10T05:17:04.360Z,19.00
2018-05-10T05:18:04.395Z,18.60
2018-05-10T05:19:04.431Z,17.70
2018-05-10T05:20:04.464Z,17.10
2018-05-10T05:21:04.507Z,17.70
2018-05-10T05:22:04.539Z,18.00
2018-05-10T05:23:04.573Z,19.60
2018-05-10T05:24:04.659Z,19.30
2018-05-10T05:25:04.932Z,18.80
2018-05-10T05:26:04.680Z,19.20
2018-05-10T05:27:04.718Z,18.70
2018-05-10T05:28:04.750Z,22.00
2018-05-10T05:29:04.787Z,18.20
2018-05-10T05:30:04.822Z,17.20
2018-05-10T05:31:04.859Z,21.30
2018-05-10T05:32:04.893Z,17.20
2018-05-10T05:33:04.929Z,17.10
2018-05-10T05:34:04.967Z,15.50
2018-05-10T05:35:05.005Z,16.60
2018-05-10T05:36:05.038Z,16.60
2018-05-10T05:37:05.074Z,17.50
2018-05-10T05:38:05.108Z,17.40
2018-05-10T05:39:05.147Z,16.90
2018-05-10T05:40:05.182Z,16.30
2018-05-10T05:41:05.237Z,16.20
2018-05-10T05:42:05.253Z,16.90
2018-05-10T05:43:05.289Z,15.60
2018-05-10T05:44:05.325Z,17.30
2018-05-10T05:45:05.363Z,15.60
2018-05-10T05:46:05.396Z,17.10
2018-05-10T05:47:05.433Z,16.00
2018-05-10T05:48:05.468Z,15.50
2018-05-10T05:49:05.503Z,16.10
2018-05-10T05:50:05.548Z,16.10
2018-05-10T05:51:05.639Z,16.60
2018-05-10T05:52:05.611Z,15.50
2018-05-10T05:53:05.648Z,16.70
2018-05-10T05:54:05.693Z,17.10
2018-05-10T05:55:05.803Z,15.50
2018-05-10T05:56:05.755Z,15.40
2018-05-10T05:57:05.807Z,16.30
2018-05-10T05:58:05.828Z,14.80
2018-05-10T05:59:05.869Z,14.50
2018-05-10T06:00:05.910Z,15.10
2018-05-10T06:01:05.937Z,14.90
2018-05-10T06:02:05.974Z,14.40
2018-05-10T06:03:06.011Z,14.70
2018-05-10T06:04:06.046Z,14.40
2018-05-10T06:05:06.081Z,14.90
2018-05-10T06:06:06.129Z,14.60
2018-05-10T06:07:06.255Z,15.20
2018-05-10T06:08:06.189Z,14.90
2018-05-10T06:09:06.227Z,14.70
2018-05-10T06:10:06.266Z,14.30
2018-05-10T06:11:06.300Z,14.50
2018-05-10T06:12:06.336Z,14.00
2018-05-10T06:13:06.374Z,14.40
2018-05-10T06:14:06.420Z,14.60
2018-05-10T06:15:06.456Z,15.20
2018-05-10T06:16:06.482Z,16.00
2018-05-10T06:17:06.518Z,15.80
2018-05-10T06:18:06.553Z,15.30
2018-05-10T06:19:06.593Z,16.20
2018-05-10T06:20:06.627Z,15.10
2018-05-10T06:21:06.663Z,15.20
2018-05-10T06:22:06.701Z,15.00
2018-05-10T06:23:06.736Z,14.90
2018-05-10T06:24:06.771Z,14.40
2018-05-10T06:25:06.955Z,14.60
2018-05-10T06:26:06.855Z,15.10
2018-05-10T06:27:06.918Z,14.50
2018-05-10T06:28:06.944Z,14.40
2018-05-10T06:29:06.955Z,14.40
2018-05-10T06:30:06.992Z,14.50
2018-05-10T06:31:07.031Z,15.00
2018-05-10T06:32:07.065Z,14.60
2018-05-10T06:33:07.103Z,14.30
2018-05-10T06:34:07.219Z,15.60
2018-05-10T06:35:07.177Z,14.70
2018-05-10T06:36:07.223Z,15.40
2018-05-10T06:37:07.248Z,15.70
2018-05-10T06:38:07.300Z,16.40
2018-05-10T06:39:07.325Z,16.00
2018-05-10T06:40:07.377Z,15.60
2018-05-10T06:41:07.412Z,16.20
2018-05-10T06:42:07.434Z,15.40
2018-05-10T06:43:07.475Z,16.00
2018-05-10T06:44:07.507Z,15.70
2018-05-10T06:45:07.544Z,16.70
2018-05-10T06:46:07.582Z,15.70
2018-05-10T06:47:07.619Z,15.30
2018-05-10T06:48:07.653Z,15.50
2018-05-10T06:49:07.692Z,15.10
2018-05-10T06:50:07.734Z,16.20
2018-05-10T06:51:07.766Z,14.70
2018-05-10T06:52:07.804Z,14.70
2018-05-10T06:53:07.859Z,14.50
2018-05-10T06:54:07.879Z,14.00
2018-05-10T06:55:07.914Z,14.10
2018-05-10T06:56:07.951Z,14.30
2018-05-10T06:57:07.996Z,14.40
2018-05-10T06:58:08.032Z,15.40
2018-05-10T06:59:08.071Z,15.50
2018-05-10T07:00:08.105Z,16.00
2018-05-10T07:01:08.139Z,15.70
2018-05-10T07:02:08.176Z,16.00
2018-05-10T07:03:08.214Z,16.30
2018-05-10T07:04:08.250Z,16.10
2018-05-10T07:05:08.288Z,15.20
2018-05-10T07:06:08.329Z,15.60
2018-05-10T07:07:08.363Z,15.40
2018-05-10T07:08:08.404Z,16.70
2018-05-10T07:09:08.437Z,15.30
2018-05-10T07:10:08.476Z,15.60
2018-05-10T07:11:08.525Z,16.10
2018-05-10T07:12:08.551Z,16.50
2018-05-10T07:13:08.590Z,16.50
2018-05-10T07:14:08.629Z,16.60
2018-05-10T07:15:08.673Z,15.60
2018-05-10T07:16:08.702Z,16.80
2018-05-10T07:17:08.740Z,16.00
2018-05-10T07:18:08.778Z,16.40
2018-05-10T07:19:08.818Z,16.00
2018-05-10T07:20:08.855Z,16.40
2018-05-10T07:21:08.894Z,16.60
2018-05-10T07:22:08.931Z,16.60
2018-05-10T07:23:08.968Z,15.60
2018-05-10T07:24:09.013Z,15.20
2018-05-10T07:25:09.111Z,16.40
2018-05-10T07:26:09.083Z,15.00
2018-05-10T07:27:09.119Z,15.10
2018-05-10T07:28:09.158Z,14.40
2018-05-10T07:29:09.194Z,14.10
2018-05-10T07:30:09.234Z,13.80
2018-05-10T07:31:09.272Z,13.60
2018-05-10T07:32:09.600Z,13.50
2018-05-10T07:33:09.351Z,13.90
2018-05-10T07:34:09.388Z,12.80
2018-05-10T07:35:09.427Z,13.30
2018-05-10T07:36:09.469Z,15.20
2018-05-10T07:37:09.506Z,13.30
2018-05-10T07:38:09.541Z,12.70
2018-05-10T07:39:09.585Z,12.50
2018-05-10T07:40:09.627Z,12.70
2018-05-10T07:41:09.656Z,13.10
2018-05-10T07:42:09.802Z,11.80
2018-05-10T07:43:09.733Z,11.40
2018-05-10T07:44:09.770Z,12.10
2018-05-10T07:45:09.811Z,12.90
2018-05-10T07:46:09.849Z,11.60
2018-05-10T07:47:09.901Z,13.40
2018-05-10T07:48:09.925Z,11.70
2018-05-10T07:49:09.965Z,12.10
2018-05-10T07:50:10.008Z,11.90
2018-05-10T07:51:10.052Z,11.70
2018-05-10T07:52:10.082Z,12.40
2018-05-10T07:53:10.186Z,10.90
2018-05-10T07:54:10.157Z,11.50
2018-05-10T07:55:10.196Z,11.10
2018-05-10T07:56:10.264Z,10.50
2018-05-10T07:57:10.273Z,10.30
2018-05-10T07:58:10.315Z,9.30
2018-05-10T07:59:10.353Z,9.80
2018-05-10T08:00:10.389Z,9.80
2018-05-10T08:01:10.429Z,9.40
2018-05-10T08:02:10.470Z,9.60
2018-05-10T08:03:10.508Z,10.60
2018-05-10T08:04:10.555Z,10.70
2018-05-10T08:05:10.585Z,10.20
2018-05-10T08:06:10.628Z,8.90
2018-05-10T08:07:10.664Z,8.40
2018-05-10T08:08:10.711Z,8.20
2018-05-10T08:09:10.751Z,9.00
2018-05-10T08:10:10.838Z,8.00
2018-05-10T08:11:10.828Z,8.10
2018-05-10T08:12:10.861Z,8.20
2018-05-10T08:13:10.900Z,7.60
2018-05-10T08:14:10.948Z,8.50
2018-05-10T08:15:11.083Z,6.80
2018-05-10T08:16:11.030Z,7.90
2018-05-10T08:17:11.136Z,6.40
2018-05-10T08:18:11.095Z,7.10
2018-05-10T08:19:11.143Z,6.40
2018-05-10T08:20:11.184Z,8.30
2018-05-10T08:21:11.219Z,8.10
2018-05-10T08:22:11.253Z,9.20
2018-05-10T08:23:11.295Z,6.50
2018-05-10T08:24:11.346Z,7.30
2018-05-10T08:25:11.372Z,7.20
2018-05-10T08:26:11.420Z,7.80
2018-05-10T08:27:11.451Z,8.00
2018-05-10T08:28:11.494Z,7.60
2018-05-10T08:29:11.531Z,10.30
2018-05-10T08:30:11.603Z,7.30
2018-05-10T08:31:11.610Z,6.90
2018-05-10T08:32:11.650Z,7.60
2018-05-10T08:33:11.693Z,6.90
2018-05-10T08:34:11.730Z,8.90
2018-05-10T08:35:11.773Z,7.90
2018-05-10T08:36:11.811Z,7.20
2018-05-10T08:37:11.954Z,7.60
2018-05-10T08:38:11.891Z,6.00
2018-05-10T08:39:11.934Z,8.70
2018-05-10T08:40:11.971Z,7.00
2018-05-10T08:41:12.011Z,8.30
2018-05-10T08:42:12.051Z,8.00
2018-05-10T08:43:12.091Z,7.60
2018-05-10T08:44:12.130Z,6.60
2018-05-10T08:45:12.177Z,7.40
2018-05-10T08:46:12.214Z,7.20
2018-05-10T08:47:12.254Z,6.70
2018-05-10T08:48:12.295Z,7.10
2018-05-10T08:49:12.342Z,9.00
2018-05-10T08:50:12.377Z,7.80
2018-05-10T08:51:12.420Z,7.10
2018-05-10T08:52:12.452Z,6.40
2018-05-10T08:53:12.494Z,7.60
2018-05-10T08:54:12.547Z,7.10
2018-05-10T08:55:12.575Z,7.30
2018-05-10T08:56:12.621Z,6.80
2018-05-10T08:57:12.654Z,9.10
2018-05-10T08:58:12.694Z,6.60
2018-05-10T08:59:12.736Z,7.20
2018-05-10T09:00:12.774Z,7.60
2018-05-10T09:01:12.816Z,6.90
2018-05-10T09:02:12.857Z,8.20
2018-05-10T09:03:12.897Z,7.50
2018-05-10T09:04:12.936Z,9.20
2018-05-10T09:05:12.977Z,8.30
2018-05-10T09:06:13.022Z,8.10
2018-05-10T09:07:13.076Z,7.40
2018-05-10T09:08:13.098Z,7.10
2018-05-10T09:09:13.148Z,7.80
2018-05-10T09:10:13.182Z,7.40
2018-05-10T09:11:13.227Z,7.80
2018-05-10T09:12:13.275Z,6.90
2018-05-10T09:13:13.306Z,7.00
2018-05-10T09:14:13.344Z,8.10
2018-05-10T09:15:13.389Z,7.30
2018-05-10T09:16:13.434Z,7.40
2018-05-10T09:17:13.468Z,7.20
2018-05-10T09:18:13.509Z,7.40
2018-05-10T09:19:13.551Z,7.70
2018-05-10T09:20:13.651Z,7.30
2018-05-10T09:21:13.631Z,7.60
2018-05-10T09:22:13.677Z,8.30
2018-05-10T09:23:13.718Z,9.10
2018-05-10T09:24:13.754Z,6.50
2018-05-10T09:25:13.798Z,7.20
2018-05-10T09:26:13.843Z,8.60
2018-05-10T09:27:13.877Z,8.40
2018-05-10T09:28:13.923Z,8.20
2018-05-10T09:29:13.960Z,9.60
2018-05-10T09:30:14.036Z,7.90
2018-05-10T09:31:14.044Z,8.10
2018-05-10T09:32:14.087Z,7.90
2018-05-10T09:33:14.128Z,9.30
2018-05-10T09:34:14.165Z,9.10
2018-05-10T09:35:14.218Z,7.70
2018-05-10T09:36:14.249Z,7.80
2018-05-10T09:37:14.297Z,9.10
2018-05-10T09:38:14.331Z,8.10
2018-05-10T09:39:14.446Z,8.30
2018-05-10T09:40:14.420Z,9.70
2018-05-10T09:41:14.453Z,9.90
2018-05-10T09:42:14.503Z,8.30
2018-05-10T09:43:14.537Z,9.40
2018-05-10T09:44:14.578Z,8.10
2018-05-10T09:45:14.621Z,8.40
2018-05-10T09:46:14.693Z,7.30
2018-05-10T09:47:14.707Z,8.90
2018-05-10T09:48:14.747Z,7.60
2018-05-10T09:49:14.789Z,7.10
2018-05-10T09:50:14.829Z,7.20
2018-05-10T09:51:14.872Z,7.90
2018-05-10T09:52:14.909Z,7.80
2018-05-10T09:53:14.957Z,8.00
2018-05-10T09:54:14.995Z,8.90
2018-05-10T09:55:15.046Z,9.20
2018-05-10T09:56:15.079Z,8.00
2018-05-10T09:57:15.123Z,8.00
2018-05-10T09:58:15.161Z,8.20
2018-05-10T09:59:15.203Z,8.40
2018-05-10T10:00:15.243Z,8.10
2018-05-10T10:01:15.286Z,7.50
2018-05-10T10:02:15.329Z,7.40
2018-05-10T10:03:15.371Z,7.40
2018-05-10T10:04:15.416Z,9.10
2018-05-10T10:05:15.453Z,8.70
2018-05-10T10:06:15.538Z,7.90
2018-05-10T10:07:15.540Z,9.90
2018-05-10T10:08:15.580Z,7.80
2018-05-10T10:09:15.629Z,8.60
2018-05-10T10:10:15.665Z,11.20
2018-05-10T10:11:15.729Z,8.50
2018-05-10T10:12:15.749Z,7.20
2018-05-10T10:13:15.790Z,8.30
2018-05-10T10:14:15.840Z,8.20
2018-05-10T10:15:15.876Z,8.20
2018-05-10T10:16:15.920Z,8.30
2018-05-10T10:17:15.962Z,9.20
2018-05-10T10:18:16.006Z,11.10
2018-05-10T10:19:16.049Z,7.70
2018-05-10T10:20:16.090Z,8.10
2018-05-10T10:21:16.137Z,8.10
2018-05-10T10:22:16.179Z,7.30
2018-05-10T10:23:16.220Z,7.80
2018-05-10T10:24:16.269Z,7.30
2018-05-10T10:25:16.310Z,8.70
2018-05-10T10:26:16.356Z,8.50
2018-05-10T10:27:16.447Z,8.50
2018-05-10T10:28:16.432Z,9.10
2018-05-10T10:29:16.486Z,7.70
2018-05-10T10:30:16.521Z,8.50
2018-05-10T10:31:16.569Z,8.30
2018-05-10T10:32:16.613Z,7.60
2018-05-10T10:33:16.655Z,8.90
2018-05-10T10:34:16.698Z,8.00
2018-05-10T10:35:16.747Z,10.80
2018-05-10T10:36:16.784Z,8.30
2018-05-10T10:37:16.829Z,10.20
2018-05-10T10:38:16.968Z,7.40
2018-05-10T10:39:16.917Z,10.50
2018-05-10T10:40:16.987Z,9.30
2018-05-10T10:41:17.003Z,11.10
2018-05-10T10:42:17.051Z,8.30
2018-05-10T10:43:17.096Z,10.00
2018-05-10T10:44:17.138Z,8.50
2018-05-10T10:45:17.182Z,9.10
2018-05-10T10:46:17.231Z,8.60
2018-05-10T10:47:17.274Z,8.80
2018-05-10T10:48:17.317Z,8.30
2018-05-10T10:49:17.362Z,9.60
2018-05-10T10:50:17.406Z,7.90
2018-05-10T10:51:17.449Z,7.90
2018-05-10T10:52:17.494Z,9.40
2018-05-10T10:53:17.539Z,8.90
2018-05-10T10:54:17.584Z,8.00
2018-05-10T10:55:17.637Z,13.00
2018-05-10T10:56:17.674Z,8.30
2018-05-10T10:57:17.717Z,7.20
2018-05-10T10:58:17.762Z,9.90
2018-05-10T10:59:17.809Z,9.00
2018-05-10T11:00:17.851Z,9.10
2018-05-10T11:01:17.905Z,9.60
2018-05-10T11:02:17.941Z,8.60
2018-05-10T11:03:17.988Z,8.80
2018-05-10T11:04:18.031Z,7.60
2018-05-10T11:05:18.074Z,8.20
2018-05-10T11:06:18.121Z,9.20
2018-05-10T11:07:18.169Z,8.20
2018-05-10T11:08:18.208Z,8.50
2018-05-10T11:09:18.269Z,9.80
2018-05-10T11:10:18.297Z,9.00
2018-05-10T11:11:18.341Z,14.50
2018-05-10T11:12:18.644Z,20.20
2018-05-10T11:13:18.429Z,19.70
2018-05-10T11:14:18.478Z,29.70
2018-05-10T11:15:18.519Z,17.10
2018-05-10T11:16:18.563Z,22.20
2018-05-10T11:17:18.609Z,9.70
2018-05-10T11:18:18.651Z,8.40
2018-05-10T11:19:18.696Z,7.80
2018-05-10T11:20:18.742Z,8.40
2018-05-10T11:21:18.782Z,7.60
2018-05-10T11:22:18.827Z,8.80
2018-05-10T11:23:18.871Z,9.00
2018-05-10T11:24:18.913Z,7.90
2018-05-10T11:25:18.963Z,8.10
2018-05-10T11:26:19.013Z,8.80
2018-05-10T11:27:19.136Z,9.80
2018-05-10T11:28:19.097Z,33.90
2018-05-10T11:29:19.137Z,15.00
2018-05-10T11:30:19.178Z,12.70
2018-05-10T11:31:19.223Z,11.80
2018-05-10T11:32:19.269Z,10.80
2018-05-10T11:33:19.377Z,12.60
2018-05-10T11:34:19.360Z,8.50
2018-05-10T11:35:19.401Z,14.80
2018-05-10T11:36:19.439Z,13.30
2018-05-10T11:37:19.485Z,8.40
2018-05-10T11:38:19.529Z,8.80
2018-05-10T11:39:19.570Z,12.50
2018-05-10T11:40:19.617Z,8.90
2018-05-10T11:41:19.656Z,10.60
2018-05-10T11:42:19.717Z,8.30
2018-05-10T11:43:19.746Z,9.70
2018-05-10T11:44:20.023Z,12.50
2018-05-10T11:45:20.023Z,8.30
2018-05-10T11:46:19.890Z,9.70
2018-05-10T11:47:19.934Z,9.10
2018-05-10T11:48:19.961Z,8.80
2018-05-10T11:49:20.003Z,8.40
2018-05-10T11:50:20.049Z,6.90
2018-05-10T11:51:20.090Z,9.10
2018-05-10T11:52:20.137Z,7.50
2018-05-10T11:53:20.221Z,9.70
2018-05-10T11:54:20.224Z,7.10
2018-05-10T11:55:20.267Z,7.50
2018-05-10T11:56:20.799Z,7.60
2018-05-10T11:57:20.354Z,8.70
2018-05-10T11:58:20.399Z,7.50
2018-05-10T11:59:20.443Z,6.90
2018-05-10T12:00:20.477Z,8.50
2018-05-10T12:01:20.520Z,8.60
2018-05-10T12:02:20.567Z,6.90
2018-05-10T12:03:20.609Z,8.80
2018-05-10T12:04:20.651Z,8.50
2018-05-10T12:05:20.696Z,8.00
2018-05-10T12:06:20.746Z,8.60
2018-05-10T12:07:20.783Z,7.50
2018-05-10T12:08:20.822Z,8.90
2018-05-10T12:09:20.868Z,7.50
2018-05-10T12:10:20.909Z,10.30
2018-05-10T12:11:20.952Z,10.10
2018-05-10T12:12:20.997Z,11.40
2018-05-10T12:13:21.036Z,10.70
2018-05-10T12:14:21.079Z,14.50
2018-05-10T12:15:21.120Z,14.20
2018-05-10T12:16:21.170Z,18.50
2018-05-10T12:17:21.206Z,17.40
2018-05-10T12:18:21.248Z,20.10
2018-05-10T12:19:21.289Z,18.20
2018-05-10T12:20:21.409Z,20.30
2018-05-10T12:21:21.372Z,19.10
2018-05-10T12:22:21.419Z,19.40
2018-05-10T12:23:21.462Z,20.70
2018-05-10T12:24:21.732Z,18.50
2018-05-10T12:25:21.541Z,17.80
2018-05-10T12:26:21.585Z,16.40
2018-05-10T12:27:21.626Z,17.70
2018-05-10T12:28:21.666Z,17.10
2018-05-10T12:29:21.702Z,17.50
2018-05-10T12:30:21.811Z,17.00
2018-05-10T12:31:21.784Z,21.60
2018-05-10T12:32:21.827Z,21.30
2018-05-10T12:33:21.875Z,20.10
2018-05-10T12:34:21.907Z,18.40
2018-05-10T12:35:21.948Z,18.90
2018-05-10T12:36:21.984Z,14.40
2018-05-10T12:37:22.025Z,13.30
2018-05-10T12:38:22.064Z,16.50
2018-05-10T12:39:22.118Z,16.30
2018-05-10T12:40:22.154Z,18.40
2018-05-10T12:41:22.183Z,17.20
2018-05-10T12:42:22.222Z,19.80
2018-05-10T12:43:22.260Z,15.90
2018-05-10T12:44:22.307Z,18.40
2018-05-10T12:45:22.338Z,14.10
2018-05-10T12:46:22.376Z,15.60
2018-05-10T12:47:22.424Z,13.60
2018-05-10T12:48:22.453Z,13.60
2018-05-10T12:49:22.493Z,12.70
2018-05-10T12:50:22.531Z,14.40
2018-05-10T12:51:22.570Z,12.80
2018-05-10T12:52:22.608Z,10.90
2018-05-10T12:53:22.653Z,12.90
2018-05-10T12:54:22.683Z,11.70
2018-05-10T12:55:22.722Z,13.00
2018-05-10T12:56:22.926Z,12.40
2018-05-10T12:57:22.800Z,13.60
2018-05-10T12:58:22.846Z,14.20
2018-05-10T12:59:22.875Z,15.80
2018-05-10T13:00:22.915Z,18.10